createdAt,value
2022-08-19T00:00:46.458Z,100.00
2022-08-19T00:03:15.018Z,100.00
2022-08-19T00:05:43.654Z,100.00
2022-08-19T00:08:12.560Z,100.00
2022-08-19T00:10:41.207Z,100.00
2022-08-19T00:13:10.578Z,100.00
2022-08-19T00:15:39.206Z,100.00
2022-08-19T00:18:07.799Z,100.00
2022-08-19T00:20:36.326Z,100.00
2022-08-19T00:23:05.034Z,100.00
2022-08-19T00:25:34.599Z,100.00
2022-08-19T00:28:04.402Z,100.00
2022-08-19T00:30:32.973Z,100.00
2022-08-19T00:33:02.885Z,100.00
2022-08-19T00:35:33.171Z,100.00
2022-08-19T00:38:01.766Z,100.00
2022-08-19T00:40:31.884Z,100.00
2022-08-19T00:43:00.906Z,100.00
2022-08-19T00:45:32.814Z,100.00
2022-08-19T00:48:05.603Z,100.00
2022-08-19T00:50:52.094Z,100.00
2022-08-19T00:53:25.472Z,100.00
2022-08-19T00:55:58.128Z,100.00
2022-08-19T00:58:31.714Z,100.00
2022-08-19T01:01:01.955Z,100.00
2022-08-19T01:03:56.854Z,100.00
2022-08-19T01:06:20.580Z,100.00
2022-08-19T01:08:50.010Z,100.00
2022-08-19T01:11:18.848Z,100.00
2022-08-19T01:13:49.871Z,99.91
2022-08-19T01:16:21.657Z,99.92
2022-08-19T01:18:51.022Z,99.97
2022-08-19T01:21:53.457Z,99.83
2022-08-19T01:24:22.300Z,99.87
2022-08-19T01:26:53.334Z,99.91
2022-08-19T01:29:22.050Z,99.80
2022-08-19T01:31:54.644Z,100.00
2022-08-19T01:34:23.606Z,99.94
2022-08-19T01:36:52.202Z,99.99
2022-08-19T01:39:26.115Z,99.86
2022-08-19T01:41:56.219Z,99.99
2022-08-19T01:44:25.219Z,99.72
2022-08-19T01:46:53.983Z,99.92
2022-08-19T01:49:26.264Z,99.93
2022-08-19T01:51:55.326Z,99.88
2022-08-19T01:54:27.558Z,99.92
2022-08-19T01:57:06.679Z,100.00
2022-08-19T01:59:37.619Z,99.99
2022-08-19T02:02:09.550Z,99.91
2022-08-19T02:04:40.998Z,99.73
2022-08-19T02:07:09.998Z,99.79
2022-08-19T02:09:39.304Z,99.91
2022-08-19T02:12:10.056Z,99.83
2022-08-19T02:14:38.635Z,99.65
2022-08-19T02:17:07.519Z,99.49
2022-08-19T02:19:36.061Z,99.81
2022-08-19T02:22:07.975Z,99.54
2022-08-19T02:24:36.507Z,99.98
2022-08-19T02:27:05.816Z,99.95
2022-08-19T02:29:34.848Z,99.78
2022-08-19T02:32:04.281Z,99.94
2022-08-19T02:34:32.823Z,100.00
2022-08-19T02:37:03.729Z,100.00
2022-08-19T02:39:32.756Z,100.00
2022-08-19T02:42:03.278Z,99.97
2022-08-19T02:44:32.207Z,99.68
2022-08-19T02:47:00.721Z,99.69
2022-08-19T02:49:29.312Z,99.99
2022-08-19T02:52:04.106Z,99.86
2022-08-19T02:54:32.735Z,99.68
2022-08-19T02:57:04.072Z,99.57
2022-08-19T02:59:34.134Z,99.46
2022-08-19T03:02:04.229Z,99.18
2022-08-19T03:04:32.856Z,98.82
2022-08-19T03:07:11.077Z,98.73
2022-08-19T03:09:40.425Z,98.72
2022-08-19T03:12:09.776Z,98.50
2022-08-19T03:14:38.731Z,98.61
2022-08-19T03:17:07.885Z,99.27
2022-08-19T03:19:36.456Z,99.54
2022-08-19T03:22:05.944Z,98.98
2022-08-19T03:24:34.548Z,98.84
2022-08-19T03:27:05.979Z,98.75
2022-08-19T03:29:43.258Z,98.22
2022-08-19T03:32:32.181Z,98.24
2022-08-19T03:35:03.784Z,98.15
2022-08-19T03:37:34.181Z,97.81
2022-08-19T03:40:07.603Z,97.91
2022-08-19T03:42:49.042Z,97.84
2022-08-19T03:45:32.381Z,97.64
2022-08-19T03:48:03.522Z,97.77
2022-08-19T03:50:32.089Z,98.25
2022-08-19T03:53:01.821Z,97.65
2022-08-19T03:55:53.043Z,97.43
2022-08-19T03:58:24.820Z,97.49
2022-08-19T04:00:53.410Z,97.06
2022-08-19T04:03:27.564Z,96.78
2022-08-19T04:05:56.165Z,96.65
2022-08-19T04:08:24.759Z,96.56
2022-08-19T04:10:53.696Z,96.56
2022-08-19T04:13:22.380Z,96.53
2022-08-19T04:15:51.049Z,96.74
2022-08-19T04:18:19.787Z,96.60
2022-08-19T04:20:48.990Z,96.41
2022-08-19T04:23:17.829Z,96.17
2022-08-19T04:25:47.540Z,95.84
2022-08-19T04:28:21.750Z,95.97
2022-08-19T04:30:58.145Z,95.84
2022-08-19T04:33:31.074Z,95.99
2022-08-19T04:35:59.948Z,96.18
2022-08-19T04:38:29.117Z,96.09
2022-08-19T04:41:18.373Z,95.63
2022-08-19T04:43:50.134Z,95.63
2022-08-19T04:46:40.280Z,95.47
2022-08-19T04:49:13.094Z,95.36
2022-08-19T04:51:44.932Z,95.14
2022-08-19T04:54:13.972Z,94.89
2022-08-19T04:56:42.717Z,95.25
2022-08-19T04:59:12.013Z,94.86
2022-08-19T05:01:40.593Z,94.49
2022-08-19T05:04:09.168Z,93.82
2022-08-19T05:06:38.025Z,93.59
2022-08-19T05:09:06.752Z,93.07
2022-08-19T05:11:40.948Z,92.62
2022-08-19T05:14:11.036Z,92.12
2022-08-19T05:16:41.010Z,91.43
2022-08-19T05:19:28.132Z,90.70
2022-08-19T05:22:15.277Z,91.70
2022-08-19T05:24:56.624Z,89.62
2022-08-19T05:27:31.497Z,89.55
2022-08-19T05:30:00.757Z,89.60
2022-08-19T05:32:29.389Z,89.55
2022-08-19T05:34:58.204Z,88.82
2022-08-19T05:37:33.375Z,86.49
2022-08-19T05:40:52.627Z,87.09
2022-08-19T05:43:21.395Z,86.26
2022-08-19T05:45:57.281Z,86.18
2022-08-19T05:48:25.945Z,86.54
2022-08-19T05:51:11.450Z,86.05
2022-08-19T05:53:42.182Z,86.13
2022-08-19T05:56:18.746Z,85.58
2022-08-19T05:58:47.349Z,84.65
2022-08-19T06:01:27.398Z,84.67
2022-08-19T06:03:58.623Z,83.98
2022-08-19T06:06:27.283Z,83.58
2022-08-19T06:09:04.863Z,84.17
2022-08-19T06:11:42.683Z,82.20
2022-08-19T06:14:32.277Z,82.35
2022-08-19T06:17:19.906Z,82.25
2022-08-19T06:19:48.653Z,81.99
2022-08-19T06:22:25.445Z,81.96
2022-08-19T06:24:59.833Z,81.03
2022-08-19T06:28:11.393Z,80.30
2022-08-19T06:30:51.904Z,79.26
2022-08-19T06:33:28.468Z,79.83
2022-08-19T06:36:02.016Z,77.63
2022-08-19T06:38:30.862Z,77.29
2022-08-19T06:41:07.515Z,76.34
2022-08-19T06:43:45.460Z,76.55
2022-08-19T06:46:16.960Z,76.37
2022-08-19T06:48:46.712Z,76.37
2022-08-19T06:51:43.693Z,75.02
2022-08-19T06:54:30.709Z,73.31
2022-08-19T06:57:39.221Z,72.39
2022-08-19T07:00:21.050Z,72.19
2022-08-19T07:03:03.029Z,71.64
2022-08-19T07:05:36.392Z,72.06
2022-08-19T07:08:23.904Z,72.26
2022-08-19T07:11:12.552Z,72.32
2022-08-19T07:13:52.247Z,72.43
2022-08-19T07:16:29.169Z,72.61
2022-08-19T07:22:32.265Z,70.41
2022-08-19T07:25:06.301Z,70.01
2022-08-19T07:27:39.821Z,69.69
2022-08-19T07:30:18.092Z,68.90
2022-08-19T07:32:46.656Z,68.40
2022-08-19T07:35:24.779Z,69.28
2022-08-19T07:37:54.191Z,69.25
2022-08-19T07:40:23.009Z,69.54
2022-08-19T07:42:59.217Z,67.61
2022-08-19T07:45:30.524Z,67.13
2022-08-19T07:47:59.926Z,66.83
2022-08-19T07:50:30.201Z,66.55
2022-08-19T07:52:58.839Z,66.26
2022-08-19T07:55:42.171Z,65.48
2022-08-19T07:58:21.967Z,65.69
2022-08-19T08:01:36.215Z,65.14
2022-08-19T08:04:32.043Z,64.81
2022-08-19T08:07:22.670Z,64.11
2022-08-19T08:09:52.896Z,63.89
2022-08-19T08:12:34.802Z,62.38
2022-08-19T08:15:08.977Z,62.27
2022-08-19T08:17:49.443Z,62.55
2022-08-19T08:20:20.570Z,62.61
2022-08-19T08:23:07.653Z,61.59
2022-08-19T08:25:37.906Z,60.56
2022-08-19T08:28:08.619Z,60.87
2022-08-19T08:30:45.026Z,61.80
2022-08-19T08:33:33.124Z,61.23
2022-08-19T08:36:06.196Z,60.22
2022-08-19T08:38:43.022Z,59.92
2022-08-19T08:41:46.293Z,58.32
2022-08-19T08:47:36.727Z,58.14
2022-08-19T08:50:20.505Z,57.60
2022-08-19T08:52:56.250Z,56.71
2022-08-19T08:55:36.948Z,56.72
2022-08-19T08:58:17.403Z,56.75
2022-08-19T09:00:49.384Z,56.34
2022-08-19T09:03:23.992Z,55.62
2022-08-19T09:06:12.006Z,54.39
2022-08-19T09:09:15.078Z,54.42
2022-08-19T09:12:04.005Z,52.98
2022-08-19T09:15:01.573Z,52.17
2022-08-19T09:17:34.520Z,52.43
2022-08-19T09:20:09.936Z,51.57
2022-08-19T09:22:40.437Z,49.74
2022-08-19T09:25:11.785Z,49.57
2022-08-19T09:27:43.611Z,50.23
2022-08-19T09:30:19.183Z,48.85
2022-08-19T09:32:52.835Z,47.42
2022-08-19T09:35:26.592Z,46.39
2022-08-19T09:37:59.929Z,46.74
2022-08-19T09:40:30.943Z,46.68
2022-08-19T09:43:09.905Z,47.02
2022-08-19T09:45:41.768Z,47.16
2022-08-19T09:48:11.687Z,47.15
2022-08-19T09:50:51.853Z,47.31
2022-08-19T09:53:25.647Z,46.91
2022-08-19T09:55:56.869Z,47.43
2022-08-19T09:58:28.832Z,47.16
2022-08-19T10:00:59.770Z,46.81
2022-08-19T10:03:31.366Z,45.65
2022-08-19T10:06:02.671Z,45.11
2022-08-19T10:08:37.678Z,44.81
2022-08-19T10:11:27.167Z,45.30
2022-08-19T10:13:55.321Z,45.30
2022-08-19T10:16:26.144Z,45.42
2022-08-19T10:19:00.643Z,45.01
2022-08-19T10:21:35.524Z,44.70
2022-08-19T10:24:06.471Z,43.37
2022-08-19T10:26:48.531Z,43.34
2022-08-19T10:29:32.124Z,43.80
2022-08-19T10:32:04.423Z,44.09
2022-08-19T10:34:33.218Z,44.70
2022-08-19T10:37:02.274Z,44.75
2022-08-19T10:39:43.032Z,44.57
2022-08-19T10:42:14.374Z,44.33
2022-08-19T10:44:43.860Z,44.66
2022-08-19T10:47:21.854Z,44.17
2022-08-19T10:50:14.511Z,43.33
2022-08-19T10:52:50.612Z,42.61
2022-08-19T10:55:43.151Z,42.46
2022-08-19T10:58:18.961Z,42.57
2022-08-19T11:00:55.327Z,42.45
2022-08-19T11:03:25.254Z,42.42
2022-08-19T11:06:09.814Z,41.57
2022-08-19T11:08:39.608Z,41.92
2022-08-19T11:11:09.180Z,42.74
2022-08-19T11:13:41.598Z,42.14
2022-08-19T11:16:20.563Z,41.90
2022-08-19T11:18:53.950Z,41.84
2022-08-19T11:21:34.758Z,41.18
2022-08-19T11:24:08.986Z,41.04
2022-08-19T11:26:39.572Z,41.19
2022-08-19T11:29:14.137Z,41.81
2022-08-19T11:31:48.292Z,41.81
2022-08-19T11:34:23.989Z,41.56
2022-08-19T11:36:52.994Z,41.52
2022-08-19T11:39:23.713Z,41.24
2022-08-19T11:41:52.489Z,40.97
2022-08-19T11:44:21.172Z,41.43
2022-08-19T11:46:49.849Z,41.40
2022-08-19T11:49:20.872Z,40.72
2022-08-19T11:51:51.768Z,40.35
2022-08-19T11:54:22.490Z,40.50
2022-08-19T11:56:51.133Z,40.47
2022-08-19T11:59:20.080Z,40.38
2022-08-19T12:01:48.613Z,39.41
2022-08-19T12:04:17.196Z,39.45
2022-08-19T12:06:47.201Z,39.24
2022-08-19T12:09:16.654Z,39.07
2022-08-19T12:11:45.329Z,39.25
2022-08-19T12:14:15.278Z,39.34
2022-08-19T12:16:49.135Z,38.68
2022-08-19T12:19:22.282Z,37.52
2022-08-19T12:21:56.507Z,37.57
2022-08-19T12:24:26.194Z,37.68
2022-08-19T12:26:56.560Z,37.05
2022-08-19T12:29:30.760Z,37.27
2022-08-19T12:32:01.615Z,37.54
2022-08-19T12:34:31.450Z,37.64
2022-08-19T12:37:03.944Z,37.14
2022-08-19T12:39:40.792Z,36.73
2022-08-19T12:42:12.923Z,37.03
2022-08-19T12:44:43.702Z,36.81
2022-08-19T12:47:15.396Z,36.49
2022-08-19T12:49:54.438Z,36.34
2022-08-19T12:52:28.416Z,36.46
2022-08-19T12:54:58.411Z,35.87
2022-08-19T12:57:31.952Z,35.83
2022-08-19T13:00:11.974Z,35.53
2022-08-19T13:02:42.741Z,35.28
2022-08-19T13:05:15.074Z,35.04
2022-08-19T13:07:52.185Z,34.90
2022-08-19T13:10:22.056Z,34.93
2022-08-19T13:12:52.722Z,34.75
2022-08-19T13:15:29.733Z,35.40
2022-08-19T13:18:00.495Z,35.04
2022-08-19T13:20:30.095Z,34.92
2022-08-19T13:22:58.890Z,34.74
2022-08-19T13:25:28.483Z,34.42
2022-08-19T13:27:57.199Z,34.72
2022-08-19T13:30:44.708Z,34.61
2022-08-19T13:33:17.394Z,34.84
2022-08-19T13:35:50.323Z,34.72
2022-08-19T13:38:22.952Z,34.93
2022-08-19T13:41:16.203Z,34.78
2022-08-19T13:43:56.127Z,34.63
2022-08-19T13:47:19.508Z,34.21
2022-08-19T13:49:56.950Z,34.26
2022-08-19T13:52:26.722Z,34.22
2022-08-19T13:54:57.985Z,34.68
2022-08-19T13:57:27.143Z,34.40
2022-08-19T14:00:36.347Z,34.06
2022-08-19T14:03:09.312Z,34.00
2022-08-19T14:05:38.869Z,34.16
2022-08-19T14:08:08.889Z,33.65
2022-08-19T14:10:38.228Z,33.51
2022-08-19T14:13:06.924Z,33.77
2022-08-19T14:15:40.712Z,33.70
2022-08-19T14:18:09.892Z,33.00
2022-08-19T14:20:38.851Z,33.24
2022-08-19T14:23:07.941Z,33.07
2022-08-19T14:25:36.897Z,33.00
2022-08-19T14:28:06.355Z,32.88
2022-08-19T14:30:38.842Z,33.25
2022-08-19T14:33:08.552Z,32.92
2022-08-19T14:35:39.013Z,33.03
2022-08-19T14:38:31.176Z,33.32
2022-08-19T14:41:38.870Z,33.47
2022-08-19T14:47:46.190Z,32.91
2022-08-19T14:50:17.927Z,33.19
2022-08-19T14:52:49.855Z,33.39
2022-08-19T15:27:40.124Z,34.69
2022-08-19T15:30:20.553Z,34.75
2022-08-19T15:33:37.264Z,34.85
2022-08-19T15:36:08.295Z,35.27
2022-08-19T15:38:43.174Z,35.34
2022-08-19T15:41:32.030Z,35.43
2022-08-19T15:47:53.328Z,36.21
2022-08-19T15:53:45.570Z,36.51
2022-08-19T15:56:16.249Z,36.66
2022-08-19T16:00:08.125Z,36.24
2022-08-19T16:03:17.069Z,36.08
2022-08-19T16:06:20.258Z,36.32
2022-08-19T16:08:50.461Z,36.14
2022-08-19T16:11:23.337Z,36.07
2022-08-19T16:13:55.158Z,36.18
2022-08-19T16:16:34.191Z,36.18
2022-08-19T16:19:10.636Z,35.82
2022-08-19T16:29:00.631Z,34.94
2022-08-19T16:31:30.209Z,34.56
2022-08-19T16:33:59.156Z,34.96
2022-08-19T16:36:28.827Z,35.19
2022-08-19T20:44:16.639Z,68.79
2022-08-19T20:47:46.837Z,68.84
2022-08-19T20:50:47.059Z,69.73
2022-08-19T20:53:20.948Z,71.81
2022-08-19T20:55:54.140Z,71.73
2022-08-19T20:58:59.737Z,72.53
2022-08-19T21:01:36.170Z,71.59
2022-08-19T21:04:04.915Z,71.96
2022-08-19T21:06:33.760Z,72.17
2022-08-19T21:09:03.048Z,71.93
2022-08-19T21:11:32.437Z,72.50
2022-08-19T21:14:01.280Z,72.46
2022-08-19T21:16:32.753Z,72.56
2022-08-19T21:19:02.459Z,72.97
2022-08-19T21:21:31.744Z,73.13
2022-08-19T21:24:03.244Z,74.21
2022-08-19T21:26:35.410Z,74.32
2022-08-19T21:29:18.007Z,73.98
2022-08-19T21:32:14.624Z,74.06
2022-08-19T21:34:47.237Z,74.73
2022-08-19T21:37:24.735Z,75.50
2022-08-19T21:39:55.382Z,74.27
2022-08-19T21:42:24.810Z,74.54
2022-08-19T21:45:05.285Z,74.45
2022-08-19T21:47:34.024Z,73.87
2022-08-19T21:50:28.890Z,74.21
2022-08-19T21:53:11.294Z,74.02
2022-08-19T21:55:42.896Z,74.06
2022-08-19T21:58:37.186Z,74.26
2022-08-19T22:01:15.383Z,74.85
2022-08-19T22:03:46.699Z,74.38
2022-08-19T22:06:19.681Z,74.58
2022-08-19T22:09:00.348Z,75.07
2022-08-19T22:11:46.160Z,75.17
2022-08-19T22:15:00.458Z,75.33
2022-08-19T22:17:41.090Z,75.73
2022-08-19T22:20:23.183Z,75.32
2022-08-19T22:22:58.847Z,75.56
2022-08-19T22:25:38.749Z,76.09
2022-08-19T22:28:12.274Z,76.28
2022-08-19T22:30:55.402Z,76.68
2022-08-19T22:33:39.578Z,76.71
2022-08-19T22:36:23.039Z,76.76
2022-08-19T22:38:54.496Z,77.91
2022-08-19T22:41:33.395Z,77.30
2022-08-19T22:44:09.892Z,78.25
2022-08-19T22:46:50.574Z,78.43
2022-08-19T22:49:26.059Z,77.75
2022-08-19T22:52:20.495Z,77.78
2022-08-19T22:55:01.059Z,78.23
2022-08-19T22:57:30.611Z,77.78
2022-08-19T23:00:01.238Z,78.13
2022-08-19T23:02:52.198Z,77.86
2022-08-19T23:05:29.304Z,78.14
2022-08-19T23:08:23.889Z,79.31
2022-08-19T23:11:17.631Z,79.79
2022-08-19T23:13:50.042Z,79.96
2022-08-19T23:16:18.678Z,79.97
2022-08-19T23:19:04.429Z,79.39
2022-08-19T23:22:30.759Z,79.70
2022-08-19T23:25:07.197Z,79.97
2022-08-19T23:31:21.748Z,80.12
2022-08-19T23:33:54.078Z,80.26
2022-08-19T23:36:23.131Z,80.44
2022-08-19T23:39:30.111Z,80.90
2022-08-19T23:41:59.801Z,81.06
2022-08-19T23:45:05.257Z,81.39
2022-08-19T23:47:59.758Z,81.88
2022-08-19T23:50:42.725Z,81.73
2022-08-19T23:53:13.249Z,81.93
2022-08-19T23:55:57.576Z,82.03
2022-08-19T23:58:30.032Z,81.73
